createdAt,value
2023-05-14T00:01:29.271Z,3.25
2023-05-14T00:03:56.498Z,3.10
2023-05-14T00:06:23.278Z,3.25
2023-05-14T00:08:50.207Z,3.60
2023-05-14T00:11:17.186Z,3.58
2023-05-14T00:13:44.078Z,3.80
2023-05-14T00:16:11.925Z,2.90
2023-05-14T00:18:39.054Z,3.30
2023-05-14T00:21:06.085Z,3.60
2023-05-14T00:23:33.120Z,3.10
2023-05-14T00:25:59.974Z,3.22
2023-05-14T00:28:26.919Z,3.42
2023-05-14T00:30:53.963Z,3.58
2023-05-14T00:33:20.790Z,3.28
2023-05-14T00:35:47.995Z,3.17
2023-05-14T00:38:19.211Z,3.45
2023-05-14T00:40:51.448Z,2.78
2023-05-14T00:43:19.740Z,3.33
2023-05-14T00:45:47.810Z,3.40
2023-05-14T00:48:14.759Z,3.70
2023-05-14T00:50:42.318Z,3.10
2023-05-14T00:53:10.745Z,3.10
2023-05-14T00:55:42.376Z,2.90
2023-05-14T00:58:13.720Z,3.38
2023-05-14T01:00:41.809Z,3.10
2023-05-14T01:03:09.738Z,3.05
2023-05-14T01:05:47.393Z,2.90
2023-05-14T01:08:43.304Z,3.05
2023-05-14T01:11:20.058Z,3.00
2023-05-14T01:14:17.858Z,3.33
2023-05-14T01:16:46.314Z,3.47
2023-05-14T01:19:27.574Z,3.10
2023-05-14T01:21:54.553Z,3.30
2023-05-14T01:24:21.329Z,3.40
2023-05-14T01:26:48.275Z,3.05
2023-05-14T01:29:28.556Z,3.03
2023-05-14T01:31:58.911Z,3.03
2023-05-14T01:34:28.454Z,2.88
2023-05-14T01:36:57.441Z,2.90
2023-05-14T01:39:26.859Z,3.30
2023-05-14T01:41:55.279Z,3.22
2023-05-14T01:44:22.297Z,3.30
2023-05-14T01:46:49.218Z,3.30
2023-05-14T01:49:18.160Z,4.03
2023-05-14T01:51:45.879Z,3.13
2023-05-14T01:54:12.788Z,3.63
2023-05-14T01:56:39.796Z,3.38
2023-05-14T01:59:07.056Z,3.42
2023-05-14T02:01:34.275Z,3.40
2023-05-14T02:04:01.289Z,3.15
2023-05-14T02:06:28.277Z,3.53
2023-05-14T02:08:56.131Z,3.42
2023-05-14T02:11:23.146Z,3.55
2023-05-14T02:13:50.113Z,3.30
2023-05-14T02:16:17.266Z,2.88
2023-05-14T02:18:44.119Z,3.63
2023-05-14T02:21:11.056Z,3.60
2023-05-14T02:23:41.441Z,3.95
2023-05-14T02:26:10.963Z,3.53
2023-05-14T02:28:38.200Z,3.25
2023-05-14T02:31:05.140Z,3.70
2023-05-14T02:33:32.274Z,4.30
2023-05-14T02:35:59.190Z,3.75
2023-05-14T02:38:26.800Z,3.83
2023-05-14T02:40:56.350Z,3.90
2023-05-14T02:43:23.554Z,3.95
2023-05-14T02:45:50.412Z,4.20
2023-05-14T02:48:17.544Z,3.63
2023-05-14T02:50:44.394Z,3.80
2023-05-14T02:53:11.701Z,4.03
2023-05-14T02:55:38.619Z,3.92
2023-05-14T02:58:05.733Z,3.78
2023-05-14T03:00:32.786Z,3.97
2023-05-14T03:03:00.231Z,3.55
2023-05-14T03:05:27.625Z,3.10
2023-05-14T03:07:55.065Z,4.03
2023-05-14T03:10:22.032Z,3.35
2023-05-14T03:12:49.602Z,3.70
2023-05-14T03:15:16.376Z,3.38
2023-05-14T03:17:43.617Z,4.15
2023-05-14T03:20:11.405Z,4.20
2023-05-14T03:22:38.255Z,3.47
2023-05-14T03:25:05.693Z,3.35
2023-05-14T03:27:33.868Z,4.05
2023-05-14T03:30:01.003Z,3.85
2023-05-14T03:32:27.907Z,3.33
2023-05-14T03:34:55.035Z,3.05
2023-05-14T03:37:22.113Z,3.60
2023-05-14T03:39:48.980Z,3.33
2023-05-14T03:42:15.944Z,3.13
2023-05-14T03:44:42.860Z,2.97
2023-05-14T03:47:09.677Z,3.60
2023-05-14T03:49:37.022Z,3.53
2023-05-14T03:52:04.621Z,4.50
2023-05-14T03:54:31.848Z,4.53
2023-05-14T03:56:59.848Z,4.50
2023-05-14T03:59:26.717Z,4.13
2023-05-14T04:01:54.107Z,4.32
2023-05-14T04:04:21.306Z,4.25
2023-05-14T04:06:48.227Z,4.93
2023-05-14T04:09:15.045Z,3.78
2023-05-14T04:11:41.953Z,3.83
2023-05-14T04:14:09.243Z,3.38
2023-05-14T04:16:36.064Z,3.45
2023-05-14T04:19:06.722Z,3.92
2023-05-14T04:21:33.719Z,4.00
2023-05-14T04:24:00.631Z,3.70
2023-05-14T04:26:27.511Z,3.50
2023-05-14T04:28:54.500Z,3.45
2023-05-14T04:31:21.648Z,3.65
2023-05-14T04:33:48.671Z,3.63
2023-05-14T04:36:16.135Z,7.45
2023-05-14T04:38:43.103Z,5.85
2023-05-14T04:41:10.198Z,6.78
2023-05-14T04:43:37.010Z,6.65
2023-05-14T04:46:04.038Z,5.75
2023-05-14T04:48:31.108Z,7.60
2023-05-14T04:50:58.251Z,8.45
2023-05-14T04:53:25.226Z,6.20
2023-05-14T04:55:52.203Z,6.05
2023-05-14T04:58:19.369Z,6.07
2023-05-14T05:00:46.428Z,6.20
2023-05-14T05:03:13.716Z,6.00
2023-05-14T05:05:40.888Z,5.97
2023-05-14T05:08:07.789Z,4.97
2023-05-14T05:10:34.840Z,4.88
2023-05-14T05:13:03.138Z,4.82
2023-05-14T05:15:30.031Z,3.75
2023-05-14T05:17:57.215Z,3.35
2023-05-14T05:20:25.285Z,2.25
2023-05-14T05:22:52.261Z,2.72
2023-05-14T05:25:19.173Z,1.90
2023-05-14T05:27:46.184Z,2.00
2023-05-14T05:30:13.443Z,2.08
2023-05-14T05:32:40.742Z,2.13
2023-05-14T05:35:08.090Z,1.95
2023-05-14T05:37:35.030Z,2.50
2023-05-14T05:40:01.993Z,2.20
2023-05-14T05:42:28.831Z,2.55
2023-05-14T05:44:56.310Z,2.13
2023-05-14T05:47:23.292Z,2.22
2023-05-14T05:49:50.456Z,2.20
2023-05-14T05:52:17.433Z,2.58
2023-05-14T05:54:44.500Z,1.92
2023-05-14T05:57:11.421Z,1.73
2023-05-14T05:59:38.573Z,1.92
2023-05-14T06:02:05.938Z,2.17
2023-05-14T06:04:32.985Z,2.25
2023-05-14T06:06:59.904Z,2.30
2023-05-14T06:09:26.948Z,3.38
2023-05-14T06:11:53.691Z,3.83
2023-05-14T06:14:20.734Z,3.85
2023-05-14T06:16:47.634Z,2.47
2023-05-14T06:19:15.258Z,2.85
2023-05-14T06:21:42.216Z,5.22
2023-05-14T06:24:09.408Z,4.47
2023-05-14T06:26:36.524Z,6.68
2023-05-14T06:29:03.300Z,3.40
2023-05-14T06:31:30.428Z,5.68
2023-05-14T06:33:57.452Z,3.55
2023-05-14T06:36:24.468Z,2.47
2023-05-14T06:38:51.299Z,2.30
2023-05-14T06:41:18.364Z,2.30
2023-05-14T06:43:45.205Z,1.95
2023-05-14T06:46:12.387Z,1.80
2023-05-14T06:48:39.239Z,2.33
2023-05-14T06:51:06.543Z,2.13
2023-05-14T06:53:33.643Z,2.28
2023-05-14T06:56:00.785Z,2.08
2023-05-14T06:58:27.694Z,2.25
2023-05-14T07:00:54.757Z,1.70
2023-05-14T07:03:22.338Z,1.67
2023-05-14T07:05:49.497Z,1.50
2023-05-14T07:08:16.421Z,1.42
2023-05-14T07:10:43.249Z,1.17
2023-05-14T07:13:10.238Z,1.60
2023-05-14T07:15:37.219Z,1.58
2023-05-14T07:18:04.376Z,1.40
2023-05-14T07:20:31.470Z,1.60
2023-05-14T07:22:58.347Z,1.40
2023-05-14T07:25:25.455Z,1.35
2023-05-14T07:27:52.465Z,1.40
2023-05-14T07:30:19.920Z,1.38
2023-05-14T07:32:46.867Z,1.40
2023-05-14T07:35:13.931Z,1.45
2023-05-14T07:37:41.029Z,1.90
2023-05-14T07:40:08.509Z,1.60
2023-05-14T07:42:37.280Z,1.70
2023-05-14T07:45:05.789Z,2.42
2023-05-14T07:47:33.020Z,1.60
2023-05-14T07:50:00.525Z,1.33
2023-05-14T07:52:27.539Z,1.50
2023-05-14T07:54:55.261Z,1.50
2023-05-14T07:57:22.340Z,1.23
2023-05-14T07:59:49.883Z,1.40
2023-05-14T08:02:17.746Z,1.50
2023-05-14T08:04:45.191Z,1.30
2023-05-14T08:07:12.133Z,1.13
2023-05-14T08:09:39.456Z,2.10
2023-05-14T08:12:06.857Z,2.53
2023-05-14T08:14:33.788Z,1.60
2023-05-14T08:17:00.813Z,1.50
2023-05-14T08:19:28.074Z,1.33
2023-05-14T08:21:54.950Z,3.38
2023-05-14T08:24:21.823Z,1.40
2023-05-14T08:26:48.954Z,1.20
2023-05-14T08:29:16.784Z,1.30
2023-05-14T08:31:44.070Z,1.60
2023-05-14T08:34:11.015Z,1.33
2023-05-14T08:36:39.078Z,1.23
2023-05-14T08:39:07.761Z,1.48
2023-05-14T08:41:35.784Z,1.50
2023-05-14T08:44:05.833Z,1.75
2023-05-14T08:46:33.987Z,1.88
2023-05-14T08:49:09.137Z,1.20
2023-05-14T08:51:36.547Z,1.60
2023-05-14T08:54:04.173Z,1.50
2023-05-14T08:56:33.471Z,1.40
2023-05-14T08:59:01.072Z,1.40
2023-05-14T09:01:29.053Z,1.42
2023-05-14T09:04:21.223Z,2.08
2023-05-14T09:06:53.750Z,1.52
2023-05-14T09:09:47.274Z,1.30
2023-05-14T09:12:14.884Z,1.58
2023-05-14T09:14:41.979Z,1.50
2023-05-14T09:17:09.265Z,1.48
2023-05-14T09:19:36.180Z,1.40
2023-05-14T09:22:09.298Z,1.38
2023-05-14T09:24:36.385Z,1.80
2023-05-14T09:27:04.333Z,1.40
2023-05-14T09:29:31.835Z,1.38
2023-05-14T09:32:00.702Z,1.70
2023-05-14T09:34:29.499Z,1.70
2023-05-14T09:37:01.396Z,1.40
2023-05-14T09:39:29.341Z,1.40
2023-05-14T09:41:57.026Z,1.50
2023-05-14T09:44:24.912Z,1.90
2023-05-14T09:46:53.066Z,1.30
2023-05-14T09:49:20.452Z,1.50
2023-05-14T09:51:49.608Z,1.63
2023-05-14T09:54:16.708Z,2.00
2023-05-14T09:56:44.273Z,1.30
2023-05-14T09:59:11.568Z,1.42
2023-05-14T10:01:39.910Z,1.35
2023-05-14T10:04:07.853Z,1.10
2023-05-14T10:06:37.937Z,2.50
2023-05-14T10:09:10.268Z,2.85
2023-05-14T10:11:39.284Z,2.10
2023-05-14T10:14:20.841Z,2.72
2023-05-14T10:16:50.997Z,1.50
2023-05-14T10:19:21.135Z,2.38
2023-05-14T10:22:04.486Z,1.60
2023-05-14T10:24:32.471Z,2.58
2023-05-14T10:26:59.569Z,2.10
2023-05-14T10:29:37.802Z,2.63
2023-05-14T10:32:07.146Z,1.38
2023-05-14T10:34:41.297Z,1.48
2023-05-14T10:37:10.417Z,1.30
2023-05-14T10:40:08.825Z,1.20
2023-05-14T10:42:43.595Z,1.30
2023-05-14T10:45:27.030Z,1.42
2023-05-14T10:47:54.140Z,1.58
2023-05-14T10:51:08.585Z,1.30
2023-05-14T10:54:28.979Z,1.48
2023-05-14T10:56:59.489Z,1.40
2023-05-14T10:59:29.435Z,1.27
2023-05-14T11:01:59.486Z,1.55
2023-05-14T11:04:31.203Z,2.10
2023-05-14T11:06:59.515Z,1.40
2023-05-14T11:09:27.009Z,1.35
2023-05-14T11:11:54.616Z,1.38
2023-05-14T11:14:22.859Z,1.40
2023-05-14T11:16:50.477Z,1.25
2023-05-14T11:19:21.967Z,1.70
2023-05-14T11:24:15.878Z,1.45
2023-05-14T11:26:42.876Z,1.38
2023-05-14T11:29:10.762Z,1.55
2023-05-14T11:31:37.872Z,1.40
2023-05-14T11:34:07.422Z,1.40
2023-05-14T11:36:36.810Z,1.17
2023-05-14T11:39:03.732Z,1.45
2023-05-14T11:41:31.446Z,1.25
2023-05-14T11:43:58.899Z,1.20
2023-05-14T11:46:26.283Z,1.50
2023-05-14T11:48:53.250Z,1.70
2023-05-14T11:51:21.424Z,6.28
2023-05-14T11:53:48.706Z,1.38
2023-05-14T11:56:16.048Z,4.18
2023-05-14T11:58:48.379Z,1.40
2023-05-14T12:01:15.904Z,1.30
2023-05-14T12:03:43.351Z,1.27
2023-05-14T12:06:10.277Z,1.45
2023-05-14T12:08:37.739Z,1.20
2023-05-14T12:11:04.643Z,1.05
2023-05-14T12:13:32.671Z,1.15
2023-05-14T12:16:02.470Z,1.17
2023-05-14T12:18:31.490Z,0.98
2023-05-14T12:21:08.538Z,1.70
2023-05-14T12:23:35.634Z,1.17
2023-05-14T12:26:06.380Z,1.30
2023-05-14T12:28:36.917Z,1.15
2023-05-14T12:33:32.099Z,1.80
2023-05-14T12:36:19.891Z,1.23
2023-05-14T12:38:47.975Z,1.20
2023-05-14T12:41:15.047Z,1.40
2023-05-14T12:43:44.357Z,1.25
2023-05-14T12:46:11.431Z,1.00
2023-05-14T12:48:38.408Z,1.30
2023-05-14T12:51:05.273Z,1.00
2023-05-14T12:53:32.340Z,1.23
2023-05-14T12:55:59.565Z,1.50
2023-05-14T12:58:26.727Z,1.00
2023-05-14T13:00:53.840Z,1.10
2023-05-14T13:03:21.263Z,1.00
2023-05-14T13:05:48.390Z,1.02
2023-05-14T13:08:17.914Z,1.42
2023-05-14T13:10:45.293Z,1.20
2023-05-14T13:13:12.480Z,1.35
2023-05-14T13:15:39.430Z,1.25
2023-05-14T13:18:06.864Z,1.08
2023-05-14T13:20:34.466Z,1.00
2023-05-14T13:23:01.428Z,1.10
2023-05-14T13:25:28.578Z,1.00
2023-05-14T13:27:56.080Z,1.00
2023-05-14T13:30:22.964Z,1.33
2023-05-14T13:32:50.149Z,0.98
2023-05-14T13:35:17.530Z,1.00
2023-05-14T13:37:44.417Z,1.08
2023-05-14T13:40:11.695Z,1.05
2023-05-14T13:42:39.925Z,0.95
2023-05-14T13:45:07.459Z,1.25
2023-05-14T13:47:34.583Z,1.00
2023-05-14T13:50:01.398Z,0.95
2023-05-14T13:52:28.593Z,1.10
2023-05-14T13:54:56.491Z,1.20
2023-05-14T13:57:23.542Z,1.30
2023-05-14T13:59:50.778Z,1.17
2023-05-14T14:02:17.997Z,1.00
2023-05-14T14:04:44.930Z,1.50
2023-05-14T14:07:11.866Z,1.40
2023-05-14T14:09:38.884Z,0.88
2023-05-14T14:12:06.804Z,1.05
2023-05-14T14:14:33.738Z,0.93
2023-05-14T14:17:01.076Z,1.17
2023-05-14T14:19:27.911Z,1.08
2023-05-14T14:21:54.821Z,1.00
2023-05-14T14:24:21.889Z,0.98
2023-05-14T14:26:48.712Z,0.90
2023-05-14T14:29:15.619Z,1.10
2023-05-14T14:31:43.827Z,1.00
2023-05-14T14:34:10.972Z,1.20
2023-05-14T14:36:38.194Z,1.20
2023-05-14T14:39:05.269Z,0.95
2023-05-14T14:41:32.244Z,1.10
2023-05-14T14:43:59.234Z,1.15
2023-05-14T14:46:26.550Z,1.00
2023-05-14T14:48:53.514Z,1.00
2023-05-14T14:51:20.570Z,1.00
2023-05-14T14:53:47.843Z,1.05
2023-05-14T14:56:14.722Z,1.20
2023-05-14T14:58:41.718Z,0.85
2023-05-14T15:01:08.729Z,1.10
2023-05-14T15:03:36.467Z,0.90
2023-05-14T15:06:03.384Z,0.77
2023-05-14T15:08:30.280Z,0.90
2023-05-14T15:10:57.876Z,1.17
2023-05-14T15:13:25.935Z,1.50
2023-05-14T15:15:53.154Z,1.67
2023-05-14T15:18:20.645Z,1.13
2023-05-14T15:20:47.736Z,1.13
2023-05-14T15:23:14.765Z,1.00
2023-05-14T15:25:41.746Z,1.23
2023-05-14T15:28:08.803Z,3.83
2023-05-14T15:30:35.903Z,1.40
2023-05-14T15:33:02.952Z,1.20
2023-05-14T15:35:30.020Z,1.52
2023-05-14T15:37:59.918Z,1.88
2023-05-14T15:40:29.681Z,1.50
2023-05-14T15:42:56.708Z,1.90
2023-05-14T15:45:23.674Z,1.17
2023-05-14T15:47:51.196Z,1.25
2023-05-14T15:50:17.970Z,1.10
2023-05-14T15:52:44.928Z,1.65
2023-05-14T15:55:12.050Z,1.08
2023-05-14T15:57:39.310Z,1.50
2023-05-14T16:00:12.805Z,1.20
2023-05-14T16:06:23.133Z,1.30
2023-05-14T16:08:50.115Z,1.50
2023-05-14T16:11:17.272Z,1.60
2023-05-14T16:16:30.653Z,1.40
2023-05-14T16:18:57.847Z,1.75
2023-05-14T16:21:24.699Z,2.15
2023-05-14T16:24:03.755Z,1.67
2023-05-14T16:27:21.185Z,1.35
2023-05-14T16:29:48.667Z,1.52
2023-05-14T16:32:16.009Z,1.60
2023-05-14T16:34:49.786Z,1.58
2023-05-14T16:37:17.663Z,1.80
2023-05-14T16:39:44.817Z,1.70
2023-05-14T16:42:11.925Z,1.98
2023-05-14T16:44:39.162Z,1.98
2023-05-14T16:47:06.586Z,2.03
2023-05-14T16:49:33.863Z,1.65
2023-05-14T16:52:00.828Z,2.70
2023-05-14T16:54:27.872Z,3.70
2023-05-14T16:56:54.678Z,2.70
2023-05-14T16:59:21.731Z,1.92
2023-05-14T17:01:48.674Z,1.52
2023-05-14T17:04:16.158Z,1.23
2023-05-14T17:06:43.315Z,1.33
2023-05-14T17:09:10.383Z,1.80
2023-05-14T17:11:43.560Z,1.50
2023-05-14T17:15:05.687Z,1.75
2023-05-14T17:17:33.912Z,1.40
2023-05-14T17:20:01.043Z,1.35
2023-05-14T17:22:27.991Z,2.00
2023-05-14T17:24:54.977Z,1.60
2023-05-14T17:27:22.060Z,1.60
2023-05-14T17:29:51.198Z,1.85
2023-05-14T17:32:18.569Z,1.73
2023-05-14T17:34:45.601Z,1.60
2023-05-14T17:37:12.878Z,1.42
2023-05-14T17:39:39.900Z,1.55
2023-05-14T17:42:07.028Z,1.30
2023-05-14T17:44:34.225Z,1.48
2023-05-14T17:47:01.522Z,1.40
2023-05-14T17:49:28.780Z,1.30
2023-05-14T17:52:56.808Z,1.20
2023-05-14T17:57:02.240Z,1.45
2023-05-14T17:59:29.867Z,3.77
2023-05-14T18:01:56.868Z,1.70
2023-05-14T18:04:23.710Z,1.10
2023-05-14T18:06:50.930Z,1.60
2023-05-14T18:09:17.937Z,1.10
2023-05-14T18:14:51.882Z,1.33
2023-05-14T18:17:18.952Z,1.30
2023-05-14T18:19:46.102Z,1.10
2023-05-14T18:22:13.487Z,1.35
2023-05-14T18:24:40.670Z,1.35
2023-05-14T18:27:08.323Z,1.60
2023-05-14T18:29:35.241Z,1.50
2023-05-14T18:32:02.151Z,1.52
2023-05-14T18:38:54.751Z,1.60
2023-05-14T18:41:21.768Z,1.77
2023-05-14T18:43:48.649Z,1.40
2023-05-14T18:46:15.807Z,1.33
2023-05-14T18:48:42.912Z,1.42
2023-05-14T18:51:11.375Z,1.50
2023-05-14T18:53:38.581Z,1.40
2023-05-14T18:56:05.572Z,1.70
2023-05-14T18:58:32.732Z,1.80
2023-05-14T19:00:59.757Z,1.73
2023-05-14T19:03:26.986Z,1.55
2023-05-14T19:05:54.406Z,1.63
2023-05-14T19:08:21.353Z,1.52
2023-05-14T19:10:48.695Z,1.83
2023-05-14T19:13:19.466Z,1.70
2023-05-14T19:16:09.356Z,1.75
2023-05-14T19:18:36.346Z,1.70
2023-05-14T19:21:12.401Z,1.50
2023-05-14T19:23:39.462Z,1.33
2023-05-14T19:26:07.335Z,1.40
2023-05-14T19:28:34.338Z,1.70
2023-05-14T19:31:01.305Z,1.65
2023-05-14T19:33:31.880Z,1.40
2023-05-14T19:35:59.791Z,1.48
2023-05-14T19:38:26.717Z,1.25
2023-05-14T19:40:59.979Z,1.45
2023-05-14T19:43:33.877Z,1.75
2023-05-14T19:46:01.632Z,3.53
2023-05-14T19:48:33.583Z,2.40
2023-05-14T19:51:32.534Z,1.90
2023-05-14T19:54:04.436Z,1.60
2023-05-14T19:56:34.641Z,1.63
2023-05-14T19:59:02.593Z,1.60
2023-05-14T20:01:29.672Z,2.10
2023-05-14T20:03:56.711Z,1.60
2023-05-14T20:06:23.592Z,1.88
2023-05-14T20:08:51.562Z,1.50
2023-05-14T20:12:36.722Z,1.30
2023-05-14T20:14:22.420Z,1.60
2023-05-14T20:16:52.533Z,1.65
2023-05-14T20:19:21.493Z,4.10
2023-05-14T20:21:48.766Z,3.50
2023-05-14T20:24:15.646Z,2.28
2023-05-14T20:27:08.587Z,1.73
2023-05-14T20:29:51.388Z,1.60
2023-05-14T20:36:05.238Z,1.48
2023-05-14T20:38:34.448Z,1.83
2023-05-14T20:41:10.913Z,1.42
2023-05-14T20:43:37.904Z,1.40
2023-05-14T20:46:07.294Z,1.58
2023-05-14T20:48:34.422Z,1.50
2023-05-14T20:51:01.929Z,1.33
2023-05-14T20:53:28.882Z,1.45
2023-05-14T20:55:56.269Z,1.42
2023-05-14T20:58:23.214Z,1.25
2023-05-14T21:00:50.344Z,1.30
2023-05-14T21:03:17.576Z,1.48
2023-05-14T21:05:47.370Z,1.58
2023-05-14T21:08:14.165Z,1.40
2023-05-14T21:10:41.094Z,1.35
2023-05-14T21:13:08.281Z,1.33
2023-05-14T21:15:35.248Z,1.58
2023-05-14T21:18:02.260Z,2.22
2023-05-14T21:20:29.141Z,1.40
2023-05-14T21:22:56.228Z,1.50
2023-05-14T21:25:23.334Z,1.30
2023-05-14T21:27:50.730Z,1.95
2023-05-14T21:30:17.700Z,1.65
2023-05-14T21:32:44.728Z,1.80
2023-05-14T21:35:11.756Z,1.60
2023-05-14T21:37:39.976Z,1.48
2023-05-14T21:40:12.337Z,1.40
2023-05-14T21:42:42.337Z,1.63
2023-05-14T21:45:09.607Z,1.88
2023-05-14T21:47:37.388Z,2.55
2023-05-14T21:50:05.219Z,1.80
2023-05-14T21:52:32.230Z,1.85
2023-05-14T21:54:59.111Z,1.67
2023-05-14T21:57:28.384Z,1.83
2023-05-14T21:59:55.824Z,1.80
2023-05-14T22:02:23.082Z,1.70
2023-05-14T22:04:50.479Z,1.65
2023-05-14T22:07:17.675Z,1.60
2023-05-14T22:09:44.663Z,1.55
2023-05-14T22:12:11.628Z,2.00
2023-05-14T22:14:38.555Z,1.58
2023-05-14T22:17:05.658Z,1.88
2023-05-14T22:19:33.061Z,2.03
2023-05-14T22:22:00.361Z,2.17
2023-05-14T22:24:27.372Z,1.92
2023-05-14T22:26:54.716Z,1.65
2023-05-14T22:29:21.601Z,1.95
2023-05-14T22:31:48.657Z,1.83
2023-05-14T22:34:16.122Z,2.13
2023-05-14T22:36:42.946Z,2.72
2023-05-14T22:39:11.464Z,2.50
2023-05-14T22:41:40.557Z,3.45
2023-05-14T22:44:07.525Z,4.13
2023-05-14T22:46:34.762Z,10.90
2023-05-14T22:49:01.662Z,6.30
2023-05-14T22:51:28.648Z,5.38
2023-05-14T22:53:55.679Z,4.22
2023-05-14T22:56:22.682Z,4.78
2023-05-14T22:58:49.650Z,3.80
2023-05-14T23:01:16.613Z,4.18
2023-05-14T23:03:43.461Z,4.60
2023-05-14T23:06:13.707Z,3.90
2023-05-14T23:08:41.222Z,3.33
2023-05-14T23:11:08.104Z,3.67
2023-05-14T23:13:35.584Z,2.22
2023-05-14T23:16:02.732Z,2.10
2023-05-14T23:18:30.920Z,2.40
2023-05-14T23:20:58.178Z,1.70
2023-05-14T23:23:25.334Z,1.80
2023-05-14T23:25:52.427Z,2.05
2023-05-14T23:28:19.748Z,1.70
2023-05-14T23:30:46.556Z,1.80
2023-05-14T23:33:13.594Z,2.03
2023-05-14T23:35:40.839Z,1.70
2023-05-14T23:38:08.265Z,1.85
2023-05-14T23:40:35.557Z,2.00
2023-05-14T23:43:02.542Z,1.58
2023-05-14T23:45:30.382Z,1.95
2023-05-14T23:47:58.552Z,2.03
2023-05-14T23:50:25.752Z,2.00
2023-05-14T23:52:53.876Z,1.80
2023-05-14T23:55:20.874Z,1.75
2023-05-14T23:57:49.062Z,1.70
